sensor_id;sensor_type;location;lat;lon;timestamp;P1;durP1;ratioP1;P2;durP2;ratioP2
45136;SDS011;30894;51.740;19.498;2023-02-15T00:01:58;16.83;;;9.60;;
45136;SDS011;30894;51.740;19.498;2023-02-15T00:04:24;17.58;;;8.88;;
45136;SDS011;30894;51.740;19.498;2023-02-15T00:07:12;15.90;;;8.20;;
45136;SDS011;30894;51.740;19.498;2023-02-15T00:09:44;20.88;;;9.88;;
45136;SDS011;30894;51.740;19.498;2023-02-15T00:12:12;19.80;;;9.32;;
45136;SDS011;30894;51.740;19.498;2023-02-15T00:14:38;22.40;;;8.63;;
45136;SDS011;30894;51.740;19.498;2023-02-15T00:17:05;25.15;;;10.38;;
45136;SDS011;30894;51.740;19.498;2023-02-15T00:19:30;20.80;;;8.77;;
45136;SDS011;30894;51.740;19.498;2023-02-15T00:21:57;17.63;;;8.68;;
45136;SDS011;30894;51.740;19.498;2023-02-15T00:24:23;18.85;;;9.32;;
45136;SDS011;30894;51.740;19.498;2023-02-15T00:26:49;18.65;;;9.77;;
45136;SDS011;30894;51.740;19.498;2023-02-15T00:29:15;28.08;;;11.00;;
45136;SDS011;30894;51.740;19.498;2023-02-15T00:31:43;20.35;;;9.98;;
45136;SDS011;30894;51.740;19.498;2023-02-15T00:34:13;23.83;;;10.82;;
45136;SDS011;30894;51.740;19.498;2023-02-15T00:36:41;23.63;;;10.48;;
45136;SDS011;30894;51.740;19.498;2023-02-15T00:39:08;30.98;;;13.10;;
45136;SDS011;30894;51.740;19.498;2023-02-15T00:41:35;23.58;;;9.90;;
45136;SDS011;30894;51.740;19.498;2023-02-15T00:44:02;24.13;;;11.18;;
45136;SDS011;30894;51.740;19.498;2023-02-15T00:46:29;23.38;;;10.57;;
45136;SDS011;30894;51.740;19.498;2023-02-15T00:48:55;18.30;;;9.82;;
45136;SDS011;30894;51.740;19.498;2023-02-15T00:51:21;19.65;;;9.15;;
45136;SDS011;30894;51.740;19.498;2023-02-15T00:53:48;25.48;;;10.90;;
45136;SDS011;30894;51.740;19.498;2023-02-15T00:56:14;22.10;;;9.93;;
45136;SDS011;30894;51.740;19.498;2023-02-15T00:58:40;21.08;;;11.07;;
45136;SDS011;30894;51.740;19.498;2023-02-15T01:01:09;21.45;;;10.98;;
45136;SDS011;30894;51.740;19.498;2023-02-15T01:03:38;23.23;;;10.90;;
45136;SDS011;30894;51.740;19.498;2023-02-15T01:06:07;24.30;;;11.00;;
45136;SDS011;30894;51.740;19.498;2023-02-15T01:08:34;26.95;;;11.10;;
45136;SDS011;30894;51.740;19.498;2023-02-15T01:11:04;21.98;;;10.13;;
45136;SDS011;30894;51.740;19.498;2023-02-15T01:13:40;22.80;;;10.73;;
45136;SDS011;30894;51.740;19.498;2023-02-15T01:16:07;26.75;;;10.32;;
45136;SDS011;30894;51.740;19.498;2023-02-15T01:18:34;23.35;;;10.55;;
45136;SDS011;30894;51.740;19.498;2023-02-15T01:21:08;23.40;;;11.15;;
45136;SDS011;30894;51.740;19.498;2023-02-15T01:23:39;26.25;;;10.07;;
45136;SDS011;30894;51.740;19.498;2023-02-15T01:26:07;24.30;;;11.07;;
45136;SDS011;30894;51.740;19.498;2023-02-15T01:28:34;19.83;;;9.05;;
45136;SDS011;30894;51.740;19.498;2023-02-15T01:31:07;22.98;;;10.05;;
45136;SDS011;30894;51.740;19.498;2023-02-15T01:33:37;21.00;;;9.85;;
45136;SDS011;30894;51.740;19.498;2023-02-15T01:36:03;22.95;;;10.73;;
45136;SDS011;30894;51.740;19.498;2023-02-15T01:38:30;21.52;;;9.88;;
45136;SDS011;30894;51.740;19.498;2023-02-15T01:40:57;27.67;;;11.35;;
45136;SDS011;30894;51.740;19.498;2023-02-15T01:43:45;25.50;;;11.20;;
45136;SDS011;30894;51.740;19.498;2023-02-15T01:46:15;24.67;;;11.20;;
45136;SDS011;30894;51.740;19.498;2023-02-15T01:48:45;27.48;;;10.57;;
45136;SDS011;30894;51.740;19.498;2023-02-15T01:51:14;25.63;;;11.85;;
45136;SDS011;30894;51.740;19.498;2023-02-15T01:53:47;30.52;;;13.50;;
45136;SDS011;30894;51.740;19.498;2023-02-15T01:58:49;29.45;;;13.18;;
45136;SDS011;30894;51.740;19.498;2023-02-15T02:01:20;33.95;;;13.05;;
45136;SDS011;30894;51.740;19.498;2023-02-15T02:06:35;31.08;;;14.18;;
45136;SDS011;30894;51.740;19.498;2023-02-15T02:09:03;30.45;;;12.90;;
45136;SDS011;30894;51.740;19.498;2023-02-15T02:11:29;35.63;;;14.77;;
45136;SDS011;30894;51.740;19.498;2023-02-15T02:13:55;35.97;;;14.48;;
45136;SDS011;30894;51.740;19.498;2023-02-15T02:19:12;32.70;;;10.75;;
45136;SDS011;30894;51.740;19.498;2023-02-15T02:22:28;23.77;;;9.80;;
45136;SDS011;30894;51.740;19.498;2023-02-15T02:34:50;29.10;;;9.95;;
45136;SDS011;30894;51.740;19.498;2023-02-15T02:42:50;25.45;;;10.10;;
45136;SDS011;30894;51.740;19.498;2023-02-15T02:45:40;29.00;;;10.45;;
45136;SDS011;30894;51.740;19.498;2023-02-15T02:48:24;21.23;;;8.63;;
45136;SDS011;30894;51.740;19.498;2023-02-15T02:50:53;21.80;;;8.50;;
45136;SDS011;30894;51.740;19.498;2023-02-15T02:53:19;19.88;;;8.55;;
45136;SDS011;30894;51.740;19.498;2023-02-15T02:55:46;21.80;;;9.10;;
45136;SDS011;30894;51.740;19.498;2023-02-15T02:58:42;22.25;;;9.25;;
45136;SDS011;30894;51.740;19.498;2023-02-15T03:01:20;15.65;;;7.50;;
45136;SDS011;30894;51.740;19.498;2023-02-15T03:03:57;20.52;;;8.60;;
45136;SDS011;30894;51.740;19.498;2023-02-15T03:09:25;22.73;;;9.10;;
45136;SDS011;30894;51.740;19.498;2023-02-15T03:12:10;18.05;;;8.57;;
45136;SDS011;30894;51.740;19.498;2023-02-15T03:14:41;19.65;;;7.90;;
45136;SDS011;30894;51.740;19.498;2023-02-15T03:17:12;20.98;;;8.90;;
45136;SDS011;30894;51.740;19.498;2023-02-15T03:19:39;20.13;;;8.68;;
45136;SDS011;30894;51.740;19.498;2023-02-15T03:22:17;22.88;;;9.30;;
45136;SDS011;30894;51.740;19.498;2023-02-15T03:25:11;21.50;;;8.98;;
45136;SDS011;30894;51.740;19.498;2023-02-15T03:28:01;25.20;;;10.20;;
45136;SDS011;30894;51.740;19.498;2023-02-15T03:30:33;23.85;;;10.13;;
45136;SDS011;30894;51.740;19.498;2023-02-15T03:33:01;14.10;;;7.93;;
45136;SDS011;30894;51.740;19.498;2023-02-15T03:35:33;18.00;;;7.53;;
45136;SDS011;30894;51.740;19.498;2023-02-15T03:38:12;17.90;;;7.25;;
45136;SDS011;30894;51.740;19.498;2023-02-15T03:40:49;15.30;;;7.75;;
45136;SDS011;30894;51.740;19.498;2023-02-15T03:43:57;12.98;;;6.15;;
45136;SDS011;30894;51.740;19.498;2023-02-15T03:46:32;13.20;;;6.80;;
45136;SDS011;30894;51.740;19.498;2023-02-15T03:52:09;17.58;;;6.80;;
45136;SDS011;30894;51.740;19.498;2023-02-15T03:54:36;17.33;;;7.25;;
45136;SDS011;30894;51.740;19.498;2023-02-15T03:57:12;14.02;;;6.60;;
45136;SDS011;30894;51.740;19.498;2023-02-15T03:59:59;23.10;;;8.10;;
45136;SDS011;30894;51.740;19.498;2023-02-15T04:05:21;15.65;;;6.90;;
45136;SDS011;30894;51.740;19.498;2023-02-15T04:07:47;14.57;;;6.88;;
45136;SDS011;30894;51.740;19.498;2023-02-15T04:10:13;14.48;;;6.57;;
45136;SDS011;30894;51.740;19.498;2023-02-15T04:12:58;13.95;;;6.63;;
45136;SDS011;30894;51.740;19.498;2023-02-15T04:15:24;21.20;;;8.07;;
45136;SDS011;30894;51.740;19.498;2023-02-15T04:18:08;12.65;;;7.40;;
45136;SDS011;30894;51.740;19.498;2023-02-15T04:20:34;16.58;;;7.45;;
45136;SDS011;30894;51.740;19.498;2023-02-15T04:23:19;11.63;;;6.38;;
45136;SDS011;30894;51.740;19.498;2023-02-15T04:28:30;14.75;;;6.72;;
45136;SDS011;30894;51.740;19.498;2023-02-15T04:30:56;16.05;;;7.28;;
45136;SDS011;30894;51.740;19.498;2023-02-15T04:33:23;23.35;;;7.65;;
45136;SDS011;30894;51.740;19.498;2023-02-15T04:35:49;16.27;;;6.88;;
45136;SDS011;30894;51.740;19.498;2023-02-15T04:38:15;13.98;;;7.30;;
45136;SDS011;30894;51.740;19.498;2023-02-15T04:40:41;18.23;;;7.57;;
45136;SDS011;30894;51.740;19.498;2023-02-15T04:43:07;16.85;;;7.50;;
45136;SDS011;30894;51.740;19.498;2023-02-15T04:45:33;17.95;;;7.20;;
45136;SDS011;30894;51.740;19.498;2023-02-15T04:47:59;15.27;;;5.97;;
45136;SDS011;30894;51.740;19.498;2023-02-15T04:50:25;13.65;;;6.22;;
45136;SDS011;30894;51.740;19.498;2023-02-15T04:52:51;15.10;;;7.93;;
45136;SDS011;30894;51.740;19.498;2023-02-15T04:55:17;15.85;;;7.97;;
45136;SDS011;30894;51.740;19.498;2023-02-15T04:57:43;16.05;;;7.18;;
45136;SDS011;30894;51.740;19.498;2023-02-15T05:00:09;17.85;;;8.27;;
45136;SDS011;30894;51.740;19.498;2023-02-15T05:02:36;18.73;;;8.00;;
45136;SDS011;30894;51.740;19.498;2023-02-15T05:05:03;18.73;;;8.27;;
45136;SDS011;30894;51.740;19.498;2023-02-15T05:07:29;18.92;;;8.20;;
45136;SDS011;30894;51.740;19.498;2023-02-15T05:09:55;17.02;;;7.78;;
45136;SDS011;30894;51.740;19.498;2023-02-15T05:12:21;18.90;;;8.65;;
45136;SDS011;30894;51.740;19.498;2023-02-15T05:14:50;18.02;;;7.47;;
45136;SDS011;30894;51.740;19.498;2023-02-15T05:17:25;21.15;;;8.52;;
45136;SDS011;30894;51.740;19.498;2023-02-15T05:19:51;19.33;;;8.35;;
45136;SDS011;30894;51.740;19.498;2023-02-15T05:22:18;20.27;;;7.45;;
45136;SDS011;30894;51.740;19.498;2023-02-15T05:24:44;12.48;;;5.72;;
45136;SDS011;30894;51.740;19.498;2023-02-15T05:27:28;19.23;;;8.40;;
45136;SDS011;30894;51.740;19.498;2023-02-15T05:30:19;21.02;;;8.00;;
45136;SDS011;30894;51.740;19.498;2023-02-15T05:32:46;16.73;;;7.65;;
45136;SDS011;30894;51.740;19.498;2023-02-15T05:35:13;20.02;;;6.97;;
45136;SDS011;30894;51.740;19.498;2023-02-15T05:37:41;14.05;;;7.32;;
45136;SDS011;30894;51.740;19.498;2023-02-15T05:40:26;21.50;;;7.25;;
45136;SDS011;30894;51.740;19.498;2023-02-15T05:42:52;18.45;;;7.82;;
45136;SDS011;30894;51.740;19.498;2023-02-15T05:45:18;20.52;;;7.70;;
45136;SDS011;30894;51.740;19.498;2023-02-15T05:47:47;17.10;;;7.80;;
45136;SDS011;30894;51.740;19.498;2023-02-15T05:50:19;16.77;;;7.40;;
45136;SDS011;30894;51.740;19.498;2023-02-15T05:52:45;14.30;;;6.97;;
45136;SDS011;30894;51.740;19.498;2023-02-15T05:55:14;10.90;;;5.97;;
45136;SDS011;30894;51.740;19.498;2023-02-15T05:57:48;14.70;;;6.57;;
45136;SDS011;30894;51.740;19.498;2023-02-15T06:00:15;16.35;;;7.03;;
45136;SDS011;30894;51.740;19.498;2023-02-15T06:02:41;19.10;;;7.68;;
45136;SDS011;30894;51.740;19.498;2023-02-15T06:05:10;19.35;;;8.35;;
45136;SDS011;30894;51.740;19.498;2023-02-15T06:07:36;20.23;;;8.45;;
45136;SDS011;30894;51.740;19.498;2023-02-15T06:10:03;18.85;;;8.90;;
45136;SDS011;30894;51.740;19.498;2023-02-15T06:12:30;21.30;;;9.25;;
45136;SDS011;30894;51.740;19.498;2023-02-15T06:14:55;18.88;;;8.55;;
45136;SDS011;30894;51.740;19.498;2023-02-15T06:17:22;20.30;;;8.63;;
45136;SDS011;30894;51.740;19.498;2023-02-15T06:19:48;3.58;;;2.60;;
45136;SDS011;30894;51.740;19.498;2023-02-15T06:22:14;15.52;;;7.63;;
45136;SDS011;30894;51.740;19.498;2023-02-15T06:24:40;14.98;;;6.55;;
45136;SDS011;30894;51.740;19.498;2023-02-15T06:27:08;15.27;;;6.00;;
45136;SDS011;30894;51.740;19.498;2023-02-15T06:29:35;14.68;;;7.38;;
45136;SDS011;30894;51.740;19.498;2023-02-15T06:32:01;14.85;;;7.22;;
45136;SDS011;30894;51.740;19.498;2023-02-15T06:34:31;18.02;;;7.68;;
45136;SDS011;30894;51.740;19.498;2023-02-15T06:37:09;17.13;;;7.60;;
45136;SDS011;30894;51.740;19.498;2023-02-15T06:39:35;13.48;;;7.78;;
45136;SDS011;30894;51.740;19.498;2023-02-15T06:42:01;18.23;;;7.57;;
45136;SDS011;30894;51.740;19.498;2023-02-15T06:44:28;16.73;;;7.32;;
45136;SDS011;30894;51.740;19.498;2023-02-15T06:47:03;15.27;;;6.78;;
45136;SDS011;30894;51.740;19.498;2023-02-15T06:50:03;13.75;;;7.03;;
45136;SDS011;30894;51.740;19.498;2023-02-15T06:52:31;14.00;;;7.15;;
45136;SDS011;30894;51.740;19.498;2023-02-15T06:54:57;16.35;;;7.47;;
45136;SDS011;30894;51.740;19.498;2023-02-15T06:57:49;16.20;;;6.53;;
45136;SDS011;30894;51.740;19.498;2023-02-15T07:00:15;19.98;;;7.97;;
45136;SDS011;30894;51.740;19.498;2023-02-15T07:02:43;13.77;;;6.63;;
45136;SDS011;30894;51.740;19.498;2023-02-15T07:05:09;18.30;;;8.18;;
45136;SDS011;30894;51.740;19.498;2023-02-15T07:07:36;32.50;;;9.07;;
45136;SDS011;30894;51.740;19.498;2023-02-15T07:10:02;10.02;;;4.40;;
45136;SDS011;30894;51.740;19.498;2023-02-15T07:12:29;13.02;;;6.75;;
45136;SDS011;30894;51.740;19.498;2023-02-15T07:15:08;11.65;;;3.78;;
45136;SDS011;30894;51.740;19.498;2023-02-15T07:17:43;19.38;;;8.20;;
45136;SDS011;30894;51.740;19.498;2023-02-15T07:20:11;12.77;;;6.38;;
45136;SDS011;30894;51.740;19.498;2023-02-15T07:22:44;16.80;;;8.02;;
45136;SDS011;30894;51.740;19.498;2023-02-15T07:25:11;18.33;;;7.25;;
45136;SDS011;30894;51.740;19.498;2023-02-15T07:27:38;21.38;;;9.07;;
45136;SDS011;30894;51.740;19.498;2023-02-15T07:30:05;20.95;;;8.00;;
45136;SDS011;30894;51.740;19.498;2023-02-15T07:32:35;18.80;;;8.02;;
45136;SDS011;30894;51.740;19.498;2023-02-15T07:35:01;13.68;;;6.30;;
45136;SDS011;30894;51.740;19.498;2023-02-15T07:37:27;22.50;;;8.95;;
45136;SDS011;30894;51.740;19.498;2023-02-15T07:39:54;16.30;;;7.05;;
45136;SDS011;30894;51.740;19.498;2023-02-15T07:42:44;14.07;;;5.50;;
45136;SDS011;30894;51.740;19.498;2023-02-15T07:45:10;9.25;;;3.45;;
45136;SDS011;30894;51.740;19.498;2023-02-15T07:47:37;15.23;;;5.82;;
45136;SDS011;30894;51.740;19.498;2023-02-15T07:50:03;12.90;;;6.63;;
45136;SDS011;30894;51.740;19.498;2023-02-15T07:52:46;7.60;;;4.35;;
45136;SDS011;30894;51.740;19.498;2023-02-15T07:55:12;13.50;;;6.82;;
45136;SDS011;30894;51.740;19.498;2023-02-15T07:57:45;16.27;;;7.95;;
45136;SDS011;30894;51.740;19.498;2023-02-15T08:00:14;13.88;;;7.30;;
45136;SDS011;30894;51.740;19.498;2023-02-15T08:02:49;17.73;;;8.52;;
45136;SDS011;30894;51.740;19.498;2023-02-15T08:05:38;15.85;;;7.55;;
45136;SDS011;30894;51.740;19.498;2023-02-15T08:08:07;16.15;;;6.55;;
45136;SDS011;30894;51.740;19.498;2023-02-15T08:10:34;24.20;;;9.20;;
45136;SDS011;30894;51.740;19.498;2023-02-15T08:13:20;21.33;;;7.30;;
45136;SDS011;30894;51.740;19.498;2023-02-15T08:15:48;18.98;;;8.63;;
45136;SDS011;30894;51.740;19.498;2023-02-15T08:18:15;6.72;;;3.50;;
45136;SDS011;30894;51.740;19.498;2023-02-15T08:20:42;16.08;;;6.72;;
45136;SDS011;30894;51.740;19.498;2023-02-15T08:23:15;19.00;;;8.52;;
45136;SDS011;30894;51.740;19.498;2023-02-15T08:25:41;17.70;;;7.80;;
45136;SDS011;30894;51.740;19.498;2023-02-15T08:28:07;11.07;;;5.97;;
45136;SDS011;30894;51.740;19.498;2023-02-15T08:30:33;14.52;;;6.60;;
45136;SDS011;30894;51.740;19.498;2023-02-15T08:32:59;24.80;;;8.55;;
45136;SDS011;30894;51.740;19.498;2023-02-15T08:35:25;23.42;;;9.23;;
45136;SDS011;30894;51.740;19.498;2023-02-15T08:37:53;22.17;;;8.75;;
45136;SDS011;30894;51.740;19.498;2023-02-15T08:40:19;21.40;;;9.93;;
45136;SDS011;30894;51.740;19.498;2023-02-15T08:42:46;19.90;;;8.57;;
45136;SDS011;30894;51.740;19.498;2023-02-15T08:45:12;21.88;;;9.18;;
45136;SDS011;30894;51.740;19.498;2023-02-15T08:47:38;19.73;;;8.63;;
45136;SDS011;30894;51.740;19.498;2023-02-15T08:50:05;24.65;;;9.40;;
45136;SDS011;30894;51.740;19.498;2023-02-15T08:52:32;20.60;;;8.27;;
45136;SDS011;30894;51.740;19.498;2023-02-15T08:55:00;25.00;;;9.88;;
45136;SDS011;30894;51.740;19.498;2023-02-15T08:57:26;34.05;;;11.35;;
45136;SDS011;30894;51.740;19.498;2023-02-15T08:59:53;28.40;;;10.57;;
45136;SDS011;30894;51.740;19.498;2023-02-15T09:02:20;23.42;;;9.25;;
45136;SDS011;30894;51.740;19.498;2023-02-15T09:04:48;20.67;;;7.95;;
45136;SDS011;30894;51.740;19.498;2023-02-15T09:07:18;21.73;;;8.65;;
45136;SDS011;30894;51.740;19.498;2023-02-15T09:09:44;26.98;;;10.27;;
45136;SDS011;30894;51.740;19.498;2023-02-15T09:12:14;21.33;;;9.77;;
45136;SDS011;30894;51.740;19.498;2023-02-15T09:14:40;12.27;;;5.90;;
45136;SDS011;30894;51.740;19.498;2023-02-15T09:17:09;17.83;;;6.43;;
45136;SDS011;30894;51.740;19.498;2023-02-15T09:19:36;20.52;;;8.68;;
